createdAt,value
2023-12-09T00:02:11.974Z,77.07
2023-12-09T00:04:55.536Z,51.47
2023-12-09T00:07:31.875Z,66.15
2023-12-09T00:10:15.398Z,67.13
2023-12-09T00:12:57.184Z,66.20
2023-12-09T00:15:32.533Z,69.75
2023-12-09T00:18:10.073Z,72.35
2023-12-09T00:20:48.532Z,81.57
2023-12-09T00:23:24.451Z,68.13
2023-12-09T00:25:59.746Z,74.63
2023-12-09T00:28:34.625Z,74.35
2023-12-09T00:31:10.005Z,64.85
2023-12-09T00:33:44.254Z,71.45
2023-12-09T00:36:25.256Z,71.72
2023-12-09T00:39:00.288Z,67.88
2023-12-09T00:41:33.023Z,69.72
2023-12-09T00:44:08.001Z,72.30
2023-12-09T00:46:52.061Z,75.10
2023-12-09T00:49:24.497Z,70.75
2023-12-09T00:52:02.199Z,75.63
2023-12-09T00:54:37.930Z,75.75
2023-12-09T00:57:12.690Z,78.18
2023-12-09T00:59:54.982Z,75.10
2023-12-09T01:02:32.869Z,77.75
2023-12-09T01:05:05.531Z,64.75
2023-12-09T01:07:38.711Z,74.25
2023-12-09T01:10:09.196Z,82.45
2023-12-09T01:12:38.972Z,71.85
2023-12-09T01:15:16.734Z,73.85
2023-12-09T01:17:52.851Z,73.22
2023-12-09T01:20:28.326Z,77.38
2023-12-09T01:23:00.517Z,85.10
2023-12-09T01:25:40.552Z,77.85
2023-12-09T01:28:18.502Z,72.35
2023-12-09T01:31:13.024Z,82.68
2023-12-09T01:34:10.462Z,84.30
2023-12-09T01:36:49.414Z,81.93
2023-12-09T01:39:19.078Z,84.65
2023-12-09T01:41:55.248Z,85.25
2023-12-09T01:44:33.458Z,96.38
2023-12-09T01:47:09.078Z,82.60
2023-12-09T01:49:45.853Z,90.85
2023-12-09T01:52:18.995Z,96.75
2023-12-09T01:54:52.485Z,91.57
2023-12-09T02:00:07.791Z,80.72
2023-12-09T02:02:38.257Z,84.22
2023-12-09T02:05:12.018Z,90.20
2023-12-09T02:07:46.732Z,93.30
2023-12-09T02:10:22.590Z,97.05
2023-12-09T02:13:14.066Z,91.65
2023-12-09T02:15:45.659Z,108.70
2023-12-09T02:18:23.644Z,101.13
2023-12-09T02:21:01.177Z,91.47
2023-12-09T02:23:35.725Z,100.75
2023-12-09T02:26:20.690Z,98.78
2023-12-09T02:29:11.331Z,91.93
2023-12-09T02:31:47.838Z,92.20
2023-12-09T02:34:24.698Z,95.93
2023-12-09T02:36:58.584Z,103.80
2023-12-09T02:39:37.732Z,90.25
2023-12-09T02:42:16.852Z,98.68
2023-12-09T02:44:53.623Z,97.10
2023-12-09T02:47:26.641Z,93.45
2023-12-09T02:50:01.645Z,93.13
2023-12-09T02:52:42.769Z,94.32
2023-12-09T02:55:27.896Z,92.22
2023-12-09T02:58:04.873Z,103.55
2023-12-09T03:00:39.463Z,91.07
2023-12-09T03:03:21.045Z,101.13
2023-12-09T03:05:54.033Z,103.30
2023-12-09T03:08:29.226Z,92.43
2023-12-09T03:11:02.259Z,96.93
2023-12-09T03:13:39.944Z,92.68
2023-12-09T03:16:15.425Z,99.60
2023-12-09T03:18:48.167Z,104.25
2023-12-09T03:21:28.676Z,98.43
2023-12-09T03:24:04.152Z,96.95
2023-12-09T03:26:38.659Z,101.07
2023-12-09T03:29:16.776Z,107.63
2023-12-09T03:31:52.734Z,95.82
2023-12-09T03:34:32.060Z,98.43
2023-12-09T03:37:12.677Z,90.25
2023-12-09T03:39:54.068Z,96.38
2023-12-09T03:42:32.548Z,88.82
2023-12-09T03:45:07.687Z,92.30
2023-12-09T03:47:40.079Z,115.25
2023-12-09T03:50:13.664Z,100.47
2023-12-09T03:52:48.425Z,99.57
2023-12-09T03:55:21.572Z,98.50
2023-12-09T03:58:00.282Z,91.95
2023-12-09T04:00:40.578Z,98.82
2023-12-09T04:03:16.380Z,95.78
2023-12-09T04:05:48.849Z,97.10
2023-12-09T04:08:28.918Z,98.88
2023-12-09T04:11:01.318Z,95.10
2023-12-09T04:13:34.290Z,112.82
2023-12-09T04:16:08.229Z,111.00
2023-12-09T04:18:48.629Z,103.45
2023-12-09T04:21:23.543Z,103.80
2023-12-09T04:24:01.040Z,102.40
2023-12-09T04:26:41.647Z,95.97
2023-12-09T04:29:14.931Z,101.57
2023-12-09T04:34:25.184Z,99.57
2023-12-09T04:36:57.792Z,96.07
2023-12-09T04:39:32.580Z,116.93
2023-12-09T04:42:06.238Z,102.80
2023-12-09T04:44:44.589Z,115.18
2023-12-09T04:47:18.905Z,101.68
2023-12-09T04:49:51.977Z,99.38
2023-12-09T04:52:32.623Z,97.68
2023-12-09T04:55:16.161Z,108.93
2023-12-09T04:57:59.599Z,88.68
2023-12-09T05:00:33.442Z,95.57
2023-12-09T05:03:06.421Z,96.30
2023-12-09T05:05:39.797Z,100.15
2023-12-09T05:08:10.075Z,93.72
2023-12-09T05:10:45.085Z,92.65
2023-12-09T05:13:15.784Z,93.28
2023-12-09T05:15:53.417Z,86.88
2023-12-09T05:18:28.258Z,85.93
2023-12-09T05:21:00.956Z,99.30
2023-12-09T05:23:35.763Z,98.65
2023-12-09T05:26:08.703Z,87.38
2023-12-09T05:28:41.825Z,97.18
2023-12-09T05:31:14.014Z,97.53
2023-12-09T05:33:49.608Z,92.85
2023-12-09T05:36:28.244Z,93.25
2023-12-09T05:39:03.975Z,84.80
2023-12-09T05:41:44.148Z,99.73
2023-12-09T05:44:17.045Z,98.10
2023-12-09T05:46:54.831Z,95.65
2023-12-09T05:49:33.684Z,103.65
2023-12-09T05:52:12.412Z,104.72
2023-12-09T05:54:56.321Z,105.63
2023-12-09T05:57:26.170Z,101.45
2023-12-09T06:00:01.181Z,100.72
2023-12-09T06:02:35.849Z,104.28
2023-12-09T06:05:14.857Z,99.70
2023-12-09T06:07:45.170Z,100.43
2023-12-09T06:10:21.167Z,97.70
2023-12-09T06:13:12.823Z,108.22
2023-12-09T06:15:57.184Z,110.13
2023-12-09T06:18:33.686Z,104.55
2023-12-09T06:21:11.318Z,106.63
2023-12-09T06:23:46.550Z,102.65
2023-12-09T06:26:24.116Z,107.75
2023-12-09T06:28:56.276Z,107.20
2023-12-09T06:31:37.528Z,107.80
2023-12-09T06:34:12.984Z,102.57
2023-12-09T06:36:53.360Z,104.47
2023-12-09T06:39:28.962Z,100.30
2023-12-09T06:42:07.211Z,109.97
2023-12-09T06:44:44.821Z,95.10
2023-12-09T06:47:25.288Z,103.32
2023-12-09T06:50:07.662Z,101.47
2023-12-09T06:52:39.830Z,100.88
2023-12-09T06:55:13.072Z,91.68
2023-12-09T06:57:50.668Z,103.85
2023-12-09T07:00:26.777Z,111.47
2023-12-09T07:03:02.856Z,124.65
2023-12-09T07:05:43.993Z,125.43
2023-12-09T07:08:17.162Z,107.47
2023-12-09T07:10:57.721Z,120.68
2023-12-09T07:13:30.007Z,114.57
2023-12-09T07:16:04.604Z,115.80
2023-12-09T07:18:45.338Z,109.07
2023-12-09T07:21:30.007Z,109.97
2023-12-09T07:24:14.274Z,103.32
2023-12-09T07:26:52.477Z,109.15
2023-12-09T07:29:32.286Z,106.00
2023-12-09T07:32:07.865Z,106.45
2023-12-09T07:34:37.864Z,110.70
2023-12-09T07:37:11.129Z,106.15
2023-12-09T07:39:54.332Z,96.78
2023-12-09T07:42:30.075Z,110.03
2023-12-09T07:45:09.720Z,112.10
2023-12-09T07:47:43.002Z,127.82
2023-12-09T07:50:18.570Z,118.53
2023-12-09T07:52:57.144Z,112.88
2023-12-09T07:55:35.178Z,119.82
2023-12-09T07:58:14.190Z,137.43
2023-12-09T08:00:52.216Z,124.88
2023-12-09T08:03:30.561Z,110.35
2023-12-09T08:06:04.444Z,108.15
2023-12-09T08:08:52.636Z,114.60
2023-12-09T08:11:31.764Z,109.72
2023-12-09T08:14:05.410Z,110.57
2023-12-09T08:16:41.820Z,109.57
2023-12-09T08:19:12.758Z,154.10
2023-12-09T08:21:46.226Z,136.13
2023-12-09T08:24:27.747Z,139.00
2023-12-09T08:27:08.083Z,122.28
2023-12-09T08:29:54.609Z,109.90
2023-12-09T08:32:27.126Z,103.97
2023-12-09T08:35:09.722Z,94.90
2023-12-09T08:37:44.140Z,64.30
2023-12-09T08:40:23.365Z,107.47
2023-12-09T08:42:59.599Z,92.75
2023-12-09T08:45:54.164Z,97.32
2023-12-09T08:48:29.223Z,100.30
2023-12-09T08:51:02.320Z,99.70
2023-12-09T08:53:41.877Z,104.95
2023-12-09T08:56:24.992Z,97.05
2023-12-09T08:59:13.080Z,101.50
2023-12-09T09:01:52.380Z,99.88
2023-12-09T09:04:34.847Z,101.57
2023-12-09T09:07:18.918Z,92.13
2023-12-09T09:10:03.881Z,89.50
2023-12-09T09:12:52.563Z,91.28
2023-12-09T09:15:31.880Z,90.20
2023-12-09T09:18:15.705Z,100.30
2023-12-09T09:23:39.085Z,89.97
2023-12-09T09:26:23.923Z,93.20
2023-12-09T09:29:03.984Z,73.63
2023-12-09T09:31:38.610Z,94.82
2023-12-09T09:34:23.658Z,89.45
2023-12-09T09:37:15.433Z,87.45
2023-12-09T09:40:01.765Z,87.85
2023-12-09T09:42:45.251Z,89.78
2023-12-09T09:45:32.529Z,78.78
2023-12-09T09:48:20.632Z,82.35
2023-12-09T09:51:05.660Z,70.28
2023-12-09T09:54:03.881Z,67.85
2023-12-09T09:57:05.692Z,65.28
2023-12-09T10:02:29.813Z,65.47
2023-12-09T10:05:07.846Z,66.43
2023-12-09T10:07:47.047Z,74.97
2023-12-09T10:10:28.643Z,69.90
2023-12-09T10:13:10.115Z,76.10
2023-12-09T10:15:48.380Z,76.18
2023-12-09T10:18:41.481Z,71.35
2023-12-09T10:21:19.795Z,78.13
2023-12-09T10:24:04.067Z,83.65
2023-12-09T10:26:39.792Z,84.78
2023-12-09T10:29:32.984Z,83.93
2023-12-09T10:32:21.778Z,93.30
2023-12-09T10:35:19.797Z,93.93
2023-12-09T10:38:07.389Z,86.38
2023-12-09T10:40:42.835Z,89.00
2023-12-09T10:43:29.122Z,84.63
2023-12-09T10:46:14.857Z,83.30
2023-12-09T10:48:52.390Z,105.13
2023-12-09T10:51:33.768Z,131.60
2023-12-09T10:54:28.582Z,94.40
2023-12-09T10:57:16.362Z,78.25
2023-12-09T10:59:51.323Z,69.70
2023-12-09T11:02:49.963Z,68.35
2023-12-09T11:05:32.898Z,68.85
2023-12-09T11:08:13.296Z,70.80
2023-12-09T11:10:49.637Z,66.00
2023-12-09T11:13:20.547Z,74.45
2023-12-09T11:16:20.412Z,78.32
2023-12-09T11:19:00.358Z,74.97
2023-12-09T11:21:36.131Z,78.50
2023-12-09T11:24:26.004Z,66.63
2023-12-09T11:27:03.409Z,72.13
2023-12-09T11:29:40.165Z,61.03
2023-12-09T11:32:25.721Z,64.93
2023-12-09T11:35:08.919Z,73.15
2023-12-09T11:37:50.057Z,73.88
2023-12-09T11:40:28.547Z,69.00
2023-12-09T11:43:07.920Z,70.28
2023-12-09T11:45:52.305Z,71.05
2023-12-09T11:48:37.321Z,64.10
2023-12-09T11:51:22.659Z,66.03
2023-12-09T11:54:02.837Z,74.28
2023-12-09T11:56:39.375Z,75.32
2023-12-09T11:59:19.919Z,62.17
2023-12-09T12:02:00.231Z,62.95
2023-12-09T12:04:38.912Z,65.97
2023-12-09T12:07:20.125Z,72.68
2023-12-09T12:09:52.543Z,62.28
2023-12-09T12:12:33.723Z,62.17
2023-12-09T12:15:11.155Z,78.68
2023-12-09T12:17:52.311Z,77.90
2023-12-09T12:20:32.895Z,88.93
2023-12-09T12:23:26.361Z,77.65
2023-12-09T12:26:17.157Z,68.10
2023-12-09T12:28:59.169Z,99.32
2023-12-09T12:31:37.516Z,109.95
2023-12-09T12:34:50.086Z,90.65
2023-12-09T12:37:38.318Z,93.03
2023-12-09T12:40:15.541Z,81.30
2023-12-09T12:43:02.717Z,71.97
2023-12-09T12:45:49.083Z,68.70
2023-12-09T12:48:35.957Z,70.38
2023-12-09T12:51:35.262Z,66.95
2023-12-09T12:54:13.525Z,67.88
2023-12-09T12:56:57.216Z,56.35
2023-12-09T12:59:42.613Z,64.90
2023-12-09T13:02:20.577Z,69.47
2023-12-09T13:05:01.535Z,70.18
2023-12-09T13:07:44.880Z,69.35
2023-12-09T13:10:25.315Z,64.70
2023-12-09T13:13:02.653Z,66.80
2023-12-09T13:15:45.966Z,62.55
2023-12-09T13:18:23.036Z,65.50
2023-12-09T13:21:09.651Z,70.85
2023-12-09T13:23:51.157Z,93.53
2023-12-09T13:26:29.734Z,79.22
2023-12-09T13:29:17.765Z,80.35
2023-12-09T13:31:55.772Z,83.13
2023-12-09T13:34:36.598Z,90.75
2023-12-09T13:37:09.725Z,78.10
2023-12-09T13:40:00.948Z,69.95
2023-12-09T13:42:31.347Z,62.42
2023-12-09T13:45:14.796Z,62.88
2023-12-09T13:47:55.631Z,74.55
2023-12-09T13:50:30.599Z,76.30
2023-12-09T13:53:08.491Z,80.20
2023-12-09T13:55:54.273Z,69.95
2023-12-09T13:58:41.834Z,66.95
2023-12-09T14:01:25.505Z,77.07
2023-12-09T14:04:06.759Z,83.15
2023-12-09T14:06:53.047Z,85.82
2023-12-09T14:09:31.653Z,82.45
2023-12-09T14:12:16.785Z,79.93
2023-12-09T14:14:53.291Z,88.75
2023-12-09T14:17:35.166Z,73.28
2023-12-09T14:20:15.807Z,74.05
2023-12-09T14:23:20.809Z,73.10
2023-12-09T14:26:04.639Z,69.60
2023-12-09T14:28:40.892Z,80.68
2023-12-09T14:31:16.262Z,79.85
2023-12-09T14:33:57.014Z,80.75
2023-12-09T14:36:35.776Z,87.70
2023-12-09T14:39:16.029Z,83.65
2023-12-09T14:42:12.455Z,89.55
2023-12-09T14:44:58.130Z,81.78
2023-12-09T14:47:58.179Z,84.72
2023-12-09T14:50:42.814Z,96.78
2023-12-09T14:53:35.644Z,82.53
2023-12-09T14:56:16.234Z,77.35
2023-12-09T14:59:21.837Z,70.15
2023-12-09T15:02:10.499Z,91.47
2023-12-09T15:04:51.237Z,89.40
2023-12-09T15:07:41.247Z,90.18
2023-12-09T15:10:30.131Z,89.05
2023-12-09T15:13:09.701Z,90.40
2023-12-09T15:15:46.833Z,86.15
2023-12-09T15:18:33.023Z,105.57
2023-12-09T15:21:24.094Z,86.90
2023-12-09T15:24:15.792Z,83.10
2023-12-09T15:26:57.658Z,82.82
2023-12-09T15:29:37.841Z,81.68
2023-12-09T15:32:18.233Z,82.28
2023-12-09T15:35:02.541Z,80.43
2023-12-09T15:37:42.861Z,78.57
2023-12-09T15:40:15.823Z,95.95
2023-12-09T15:42:59.662Z,97.80
2023-12-09T15:45:31.969Z,88.20
2023-12-09T15:48:09.803Z,87.70
2023-12-09T15:50:43.227Z,91.95
2023-12-09T15:53:26.892Z,90.68
2023-12-09T15:56:05.358Z,93.57
2023-12-09T15:58:41.541Z,98.85
2023-12-09T16:01:14.512Z,88.55
2023-12-09T16:03:50.582Z,63.60
2023-12-09T16:06:29.924Z,99.47
2023-12-09T16:09:04.807Z,92.43
2023-12-09T16:11:42.980Z,94.97
2023-12-09T16:14:29.560Z,102.53
2023-12-09T16:17:03.143Z,101.40
2023-12-09T16:19:38.189Z,93.40
2023-12-09T16:22:17.370Z,112.88
2023-12-09T16:24:54.807Z,101.90
2023-12-09T16:27:42.336Z,92.05
2023-12-09T16:30:14.603Z,88.82
2023-12-09T16:32:51.192Z,94.38
2023-12-09T16:35:27.169Z,89.00
2023-12-09T16:38:02.582Z,97.13
2023-12-09T16:40:37.684Z,90.68
2023-12-09T16:43:13.497Z,95.70
2023-12-09T16:45:51.331Z,82.13
2023-12-09T16:48:23.611Z,100.72
2023-12-09T16:50:54.203Z,92.00
2023-12-09T16:53:29.212Z,97.60
2023-12-09T16:56:02.072Z,93.63
2023-12-09T16:58:37.172Z,72.93
2023-12-09T17:01:11.116Z,81.07
2023-12-09T17:03:43.322Z,91.85
2023-12-09T17:06:20.508Z,96.13
2023-12-09T17:09:01.265Z,90.68
2023-12-09T17:11:36.450Z,95.57
2023-12-09T17:14:10.881Z,86.00
2023-12-09T17:16:44.812Z,93.68
2023-12-09T17:19:14.921Z,89.18
2023-12-09T17:21:53.575Z,88.68
2023-12-09T17:24:30.493Z,88.93
2023-12-09T17:27:00.582Z,94.20
2023-12-09T17:29:35.927Z,91.82
2023-12-09T17:32:13.256Z,86.90
2023-12-09T17:34:45.576Z,96.05
2023-12-09T17:37:18.363Z,97.07
2023-12-09T17:39:53.743Z,89.90
2023-12-09T17:42:31.491Z,84.53
2023-12-09T17:45:02.820Z,90.85
2023-12-09T17:47:35.588Z,90.90
2023-12-09T17:50:11.310Z,99.97
2023-12-09T17:52:45.973Z,96.57
2023-12-09T17:55:20.862Z,90.18
2023-12-09T17:58:09.326Z,89.40
2023-12-09T18:00:44.816Z,85.55
2023-12-09T18:03:17.109Z,92.40
2023-12-09T18:05:54.837Z,87.03
2023-12-09T18:08:27.884Z,101.45
2023-12-09T18:11:13.850Z,86.07
2023-12-09T18:13:47.522Z,85.78
2023-12-09T18:16:23.801Z,81.53
2023-12-09T18:19:01.541Z,91.05
2023-12-09T18:21:39.122Z,93.20
2023-12-09T18:24:20.332Z,85.60
2023-12-09T18:26:53.575Z,89.72
2023-12-09T18:29:28.837Z,102.32
2023-12-09T18:32:05.685Z,119.05
2023-12-09T18:34:38.221Z,145.90
2023-12-09T18:37:19.783Z,118.67
2023-12-09T18:39:52.862Z,174.73
2023-12-09T18:42:28.042Z,129.50
2023-12-09T18:45:09.458Z,127.80
2023-12-09T18:47:47.504Z,134.82
2023-12-09T18:50:19.774Z,137.38
2023-12-09T18:53:14.842Z,137.70
2023-12-09T18:55:53.864Z,115.85
2023-12-09T18:58:34.356Z,110.93
2023-12-09T19:01:11.505Z,101.13
2023-12-09T19:03:44.418Z,116.50
2023-12-09T19:06:23.828Z,116.73
2023-12-09T19:08:57.641Z,102.47
2023-12-09T19:11:35.440Z,114.57
2023-12-09T19:14:19.653Z,120.68
2023-12-09T19:17:12.611Z,119.38
2023-12-09T19:19:45.662Z,118.72
2023-12-09T19:22:20.453Z,108.28
2023-12-09T19:25:05.847Z,122.22
2023-12-09T19:27:50.254Z,134.82
2023-12-09T19:30:30.390Z,125.25
2023-12-09T19:33:00.480Z,142.20
2023-12-09T19:35:33.300Z,128.25
2023-12-09T19:38:10.498Z,126.60
2023-12-09T19:40:52.892Z,125.65
2023-12-09T19:43:27.693Z,142.02
2023-12-09T19:46:05.480Z,135.65
2023-12-09T19:48:36.984Z,124.70
2023-12-09T19:51:09.319Z,129.18
2023-12-09T19:53:41.806Z,115.65
2023-12-09T19:56:17.620Z,111.30
2023-12-09T19:58:46.825Z,116.88
2023-12-09T20:01:22.130Z,114.68
2023-12-09T20:03:49.205Z,89.28
2023-12-09T20:06:22.889Z,92.45
2023-12-09T20:08:58.788Z,95.53
2023-12-09T20:11:38.690Z,108.93
2023-12-09T20:14:13.283Z,103.47
2023-12-09T20:16:46.516Z,104.35
2023-12-09T20:19:18.577Z,100.63
2023-12-09T20:21:52.970Z,96.00
2023-12-09T20:24:25.225Z,100.93
2023-12-09T20:26:55.743Z,101.00
2023-12-09T20:29:29.942Z,104.40
2023-12-09T20:32:02.494Z,100.82
2023-12-09T20:34:32.567Z,100.70
2023-12-09T20:37:03.520Z,91.95
2023-12-09T20:39:45.399Z,94.65
2023-12-09T20:42:14.673Z,97.22
2023-12-09T20:44:47.545Z,97.22
2023-12-09T20:47:19.604Z,85.32
2023-12-09T20:49:51.879Z,84.60
2023-12-09T20:52:21.486Z,81.07
2023-12-09T20:54:57.166Z,80.13
2023-12-09T20:57:34.629Z,84.97
2023-12-09T21:00:04.477Z,75.05
2023-12-09T21:02:36.727Z,83.78
2023-12-09T21:05:09.766Z,86.30
2023-12-09T21:07:46.933Z,78.88
2023-12-09T21:10:19.251Z,72.50
2023-12-09T21:12:51.695Z,73.25
2023-12-09T21:15:21.969Z,80.13
2023-12-09T21:17:57.081Z,77.10
2023-12-09T21:20:28.887Z,74.43
2023-12-09T21:23:00.091Z,79.43
2023-12-09T21:25:35.956Z,83.53
2023-12-09T21:28:11.673Z,80.57
2023-12-09T21:30:46.843Z,76.07
2023-12-09T21:33:21.781Z,76.40
2023-12-09T21:35:54.093Z,86.63
2023-12-09T21:38:32.566Z,71.72
2023-12-09T21:41:04.336Z,84.07
2023-12-09T21:43:37.489Z,74.00
2023-12-09T21:46:15.577Z,77.60
2023-12-09T21:48:48.098Z,79.28
2023-12-09T21:51:22.857Z,80.05
2023-12-09T21:53:56.923Z,86.60
2023-12-09T21:56:29.333Z,86.30
2023-12-09T21:58:59.338Z,76.28
2023-12-09T22:01:36.549Z,73.55
2023-12-09T22:04:11.863Z,87.97
2023-12-09T22:06:47.693Z,85.05
2023-12-09T22:09:21.516Z,88.68
2023-12-09T22:11:59.410Z,82.65
2023-12-09T22:14:32.598Z,85.07
2023-12-09T22:17:03.658Z,77.60
2023-12-09T22:19:36.637Z,86.22
2023-12-09T22:22:08.771Z,93.15
2023-12-09T22:24:43.713Z,94.80
2023-12-09T22:27:19.260Z,97.80
2023-12-09T22:29:51.273Z,83.45
2023-12-09T22:32:28.605Z,82.55
2023-12-09T22:35:00.512Z,91.70
2023-12-09T22:37:32.529Z,94.68
2023-12-09T22:40:02.585Z,88.05
2023-12-09T22:42:34.904Z,92.93
2023-12-09T22:45:05.832Z,90.93
2023-12-09T22:47:36.184Z,90.82
2023-12-09T22:50:11.979Z,99.30
2023-12-09T22:52:49.220Z,91.53
2023-12-09T22:55:23.407Z,93.28
2023-12-09T22:57:52.863Z,92.50
2023-12-09T23:00:34.451Z,95.75
2023-12-09T23:03:06.694Z,81.45
2023-12-09T23:05:42.467Z,88.05
2023-12-09T23:08:18.135Z,80.53
2023-12-09T23:10:53.243Z,89.40
2023-12-09T23:13:26.418Z,76.78
2023-12-09T23:15:59.604Z,80.13
2023-12-09T23:18:39.525Z,88.13
2023-12-09T23:21:15.414Z,77.65
2023-12-09T23:23:50.960Z,87.07
2023-12-09T23:26:24.458Z,92.50
2023-12-09T23:28:59.751Z,96.07
2023-12-09T23:31:39.506Z,100.25
2023-12-09T23:34:16.672Z,94.60
2023-12-09T23:36:49.935Z,101.60
2023-12-09T23:39:19.035Z,90.57
2023-12-09T23:41:52.450Z,96.60
2023-12-09T23:44:24.062Z,99.07
2023-12-09T23:46:55.814Z,115.13
2023-12-09T23:49:27.910Z,97.53
2023-12-09T23:52:00.561Z,91.90
2023-12-09T23:54:35.277Z,106.43
2023-12-09T23:57:08.836Z,106.00
2023-12-09T23:59:39.129Z,112.55
